地図

経路データ

SID SEASON NUMBER BASIN SUBBASIN NAME ISO_TIME NATURE LAT LON WMO_WIND WMO_PRES WMO_AGENCY TRACK_TYPE DIST2LAND LANDFALL IFLAG USA_AGENCY USA_ATCF_ID USA_LAT USA_LON USA_RECORD USA_STATUS USA_WIND USA_PRES USA_SSHS USA_R34_NE USA_R34_SE USA_R34_SW USA_R34_NW USA_R50_NE USA_R50_SE USA_R50_SW USA_R50_NW USA_R64_NE USA_R64_SE USA_R64_SW USA_R64_NW USA_POCI USA_ROCI USA_RMW USA_EYE TOKYO_LAT TOKYO_LON TOKYO_GRADE TOKYO_WIND TOKYO_PRES TOKYO_R50_DIR TOKYO_R50_LONG TOKYO_R50_SHORT TOKYO_R30_DIR TOKYO_R30_LONG TOKYO_R30_SHORT TOKYO_LAND CMA_LAT CMA_LON CMA_CAT CMA_WIND CMA_PRES HKO_LAT HKO_LON HKO_CAT HKO_WIND HKO_PRES NEWDELHI_LAT NEWDELHI_LON NEWDELHI_GRADE NEWDELHI_WIND NEWDELHI_PRES NEWDELHI_CI NEWDELHI_DP NEWDELHI_POCI REUNION_LAT REUNION_LON REUNION_TYPE REUNION_WIND REUNION_PRES REUNION_TNUM REUNION_CI REUNION_RMW REUNION_R34_NE REUNION_R34_SE REUNION_R34_SW REUNION_R34_NW REUNION_R50_NE REUNION_R50_SE REUNION_R50_SW REUNION_R50_NW REUNION_R64_NE REUNION_R64_SE REUNION_R64_SW REUNION_R64_NW BOM_LAT BOM_LON BOM_TYPE BOM_WIND BOM_PRES BOM_TNUM BOM_CI BOM_RMW BOM_R34_NE BOM_R34_SE BOM_R34_SW BOM_R34_NW BOM_R50_NE BOM_R50_SE BOM_R50_SW BOM_R50_NW BOM_R64_NE BOM_R64_SE BOM_R64_SW BOM_R64_NW BOM_ROCI BOM_POCI BOM_EYE BOM_POS_METHOD BOM_PRES_METHOD NADI_LAT NADI_LON NADI_CAT NADI_WIND NADI_PRES WELLINGTON_LAT WELLINGTON_LON WELLINGTON_WIND WELLINGTON_PRES DS824_LAT DS824_LON DS824_STAGE DS824_WIND DS824_PRES TD9636_LAT TD9636_LON TD9636_STAGE TD9636_WIND TD9636_PRES TD9635_LAT TD9635_LON TD9635_WIND TD9635_PRES TD9635_ROCI NEUMANN_LAT NEUMANN_LON NEUMANN_CLASS NEUMANN_WIND NEUMANN_PRES MLC_LAT MLC_LON MLC_CLASS MLC_WIND MLC_PRES USA_GUST BOM_GUST BOM_GUST_PER REUNION_GUST REUNION_GUST_PER USA_SEAHGT USA_SEARAD_NE USA_SEARAD_SE USA_SEARAD_SW USA_SEARAD_NW STORM_SPEED STORM_DIR
1998283N13268 1998 83 EP MM MADELINE 1998-10-09 12:00:00 NR 13.1000 -92.5000 main 144 144 O_____________ jtwc_ep EP151998 13.1000 -92.5000 25 -1 9 263
1998283N13268 1998 83 EP MM MADELINE 1998-10-09 15:00:00 NR 13.0477 -92.9376 main 179 179 P_____________ EP151998 13.0477 -92.9376 22 -1 8 270
1998283N13268 1998 83 EP MM MADELINE 1998-10-09 18:00:00 NR 13.1000 -93.3000 main 196 194 O_____________ jtwc_ep EP151998 13.1000 -93.3000 20 -1 7 295
1998283N13268 1998 83 EP MM MADELINE 1998-10-09 21:00:00 NR 13.3198 -93.5500 main 202 186 P_____________ EP151998 13.3198 -93.5500 22 -1 7 316
1998283N13268 1998 83 EP MM MADELINE 1998-10-10 00:00:00 NR 13.6000 -93.8000 main 194 194 O_____________ jtwc_ep EP151998 13.6000 -93.8000 25 -1 8 306
1998283N13268 1998 83 EP MM MADELINE 1998-10-10 03:00:00 NR 13.7927 -94.2150 main 209 209 P_____________ EP151998 13.7927 -94.2150 25 -1 9 297
1998283N13268 1998 83 EP MM MADELINE 1998-10-10 06:00:00 NR 14.0000 -94.6000 main 224 200 O_____________ jtwc_ep EP151998 14.0000 -94.6000 25 -1 8 312
1998283N13268 1998 83 EP MM MADELINE 1998-10-10 09:00:00 NR 14.2999 -94.7876 main 200 165 P_____________ EP151998 14.2999 -94.7876 25 -1 7 334
1998283N13268 1998 83 EP MM MADELINE 1998-10-10 12:00:00 NR 14.6000 -94.9000 main 165 141 O_____________ jtwc_ep EP151998 14.6000 -94.9000 25 -1 6 337
1998283N13268 1998 83 EP MM MADELINE 1998-10-10 15:00:00 NR 14.8600 -95.0350 main 130 113 P_____________ EP151998 14.8600 -95.0350 25 -1 5 324
1998283N13268 1998 83 EP MM MADELINE 1998-10-10 18:00:00 NR 15.0000 -95.2000 main 113 105 O_____________ jtwc_ep EP151998 15.0000 -95.2000 25 -1 4 282
1998283N13268 1998 83 EP MM MADELINE 1998-10-10 21:00:00 NR 14.9374 -95.4126 main 116 109 P_____________ EP151998 14.9374 -95.4126 25 -1 5 248
1998283N13268 1998 83 EP MM MADELINE 1998-10-11 00:00:00 NR 14.8000 -95.7000 main 114 105 O_____________ jtwc_ep EP151998 14.8000 -95.7000 25 -1 7 252
1998283N13268 1998 83 EP MM MADELINE 1998-10-11 03:00:00 NR 14.7349 -96.0550 main 112 101 P_____________ EP151998 14.7349 -96.0550 25 -1 8 263
1998283N13268 1998 83 EP MM MADELINE 1998-10-11 06:00:00 NR 14.7000 -96.5000 main 101 100 O_____________ jtwc_ep EP151998 14.7000 -96.5000 25 -1 10 268
1998283N13268 1998 83 EP MM MADELINE 1998-10-11 09:00:00 NR 14.7077 -97.0499 main 109 109 P_____________ EP151998 14.7077 -97.0499 25 -1 11 270
1998283N13268 1998 83 EP MM MADELINE 1998-10-11 12:00:00 NR 14.7000 -97.6000 main 138 138 O_____________ jtwc_ep EP151998 14.7000 -97.6000 25 -1 9 263
1998283N13268 1998 83 EP MM MADELINE 1998-10-11 15:00:00 NR 14.5998 -98.0151 main 158 158 P_____________ EP151998 14.5998 -98.0151 27 -1 8 256
1998283N13268 1998 83 EP MM MADELINE 1998-10-11 18:00:00 NR 14.5000 -98.4000 main 179 179 O_____________ jtwc_ep EP151998 14.5000 -98.4000 30 -1 8 261
1998283N13268 1998 83 EP MM MADELINE 1998-10-11 21:00:00 NR 14.4775 -98.8425 main 199 199 P_____________ EP151998 14.4775 -98.8425 30 -1 9 270
1998283N13268 1998 83 EP MM MADELINE 1998-10-12 00:00:00 NR 14.5000 -99.3000 main 215 215 O_____________ jtwc_ep EP151998 14.5000 -99.3000 30 -1 9 275
1998283N13268 1998 83 EP MM MADELINE 1998-10-12 03:00:00 NR 14.5500 -99.7574 main 239 229 P_____________ EP151998 14.5500 -99.7574 32 -1 9 277
1998283N13268 1998 83 EP MM MADELINE 1998-10-12 06:00:00 NR 14.6000 -100.200 main 241 241 O_____________ jtwc_ep EP151998 14.6000 -100.200 35 0 8 273
1998283N13268 1998 83 EP MM MADELINE 1998-10-12 09:00:00 NR 14.5999 -100.615 main 254 254 P_____________ EP151998 14.5999 -100.615 35 -1 8 270
1998283N13268 1998 83 EP MM MADELINE 1998-10-12 12:00:00 NR 14.6000 -101.000 main 273 273 O_____________ jtwc_ep EP151998 14.6000 -101.000 35 0 7 273
1998283N13268 1998 83 EP MM MADELINE 1998-10-12 15:00:00 NR 14.6424 -101.350 main 290 285 P_____________ EP151998 14.6424 -101.350 35 -1 7 278
1998283N13268 1998 83 EP MM MADELINE 1998-10-12 18:00:00 NR 14.7000 -101.700 main 295 295 O_____________ jtwc_ep EP151998 14.7000 -101.700 35 0 7 278
1998283N13268 1998 83 EP MM MADELINE 1998-10-12 21:00:00 NR 14.7500 -102.108 main 299 299 P_____________ EP151998 14.7500 -102.108 35 -1 8 277
1998283N13268 1998 83 EP MM MADELINE 1998-10-13 00:00:00 NR 14.8000 -102.500 main 317 317 O_____________ jtwc_ep EP151998 14.8000 -102.500 35 0 7 278
1998283N13268 1998 83 EP MM MADELINE 1998-10-13 03:00:00 NR 14.8499 -102.808 main 333 324 P_____________ EP151998 14.8499 -102.808 35 -1 6 280
1998283N13268 1998 83 EP MM MADELINE 1998-10-13 06:00:00 NR 14.9000 -103.100 main 343 343 O_____________ jtwc_ep EP151998 14.9000 -103.100 35 0 6 278
1998283N13268 1998 83 EP MM MADELINE 1998-10-13 09:00:00 NR 14.9425 -103.458 main 359 348 P_____________ EP151998 14.9425 -103.458 35 -1 7 278
1998283N13268 1998 83 EP MM MADELINE 1998-10-13 12:00:00 NR 15.0000 -103.800 main 359 355 O_____________ jtwc_ep EP151998 15.0000 -103.800 35 0 6 284
1998283N13268 1998 83 EP MM MADELINE 1998-10-13 15:00:00 NR 15.0924 -104.058 main 359 352 P_____________ EP151998 15.0924 -104.058 35 -1 5 292
1998283N13268 1998 83 EP MM MADELINE 1998-10-13 18:00:00 NR 15.2000 -104.300 main 355 352 O_____________ jtwc_ep EP151998 15.2000 -104.300 35 0 6 291
1998283N13268 1998 83 EP MM MADELINE 1998-10-13 21:00:00 NR 15.3000 -104.608 main 355 352 P_____________ EP151998 15.3000 -104.608 35 -1 6 289
1998283N13268 1998 83 EP MM MADELINE 1998-10-14 00:00:00 NR 15.4000 -104.900 main 357 351 O_____________ jtwc_ep EP151998 15.4000 -104.900 35 0 5 293
1998283N13268 1998 83 EP MM MADELINE 1998-10-14 03:00:00 NR 15.4999 -105.108 main 356 352 P_____________ EP151998 15.4999 -105.108 35 -1 4 297
1998283N13268 1998 83 EP MM MADELINE 1998-10-14 06:00:00 NR 15.6000 -105.300 main 357 354 O_____________ jtwc_ep EP151998 15.6000 -105.300 35 0 5 294
1998283N13268 1998 83 EP MM MADELINE 1998-10-14 09:00:00 NR 15.6925 -105.550 main 366 364 P_____________ EP151998 15.6925 -105.550 35 -1 5 293
1998283N13268 1998 83 EP MM MADELINE 1998-10-14 12:00:00 NR 15.8000 -105.800 main 371 370 O_____________ jtwc_ep EP151998 15.8000 -105.800 35 0 5 300
1998283N13268 1998 83 EP MM MADELINE 1998-10-14 15:00:00 NR 15.9500 -106.015 main 377 369 P_____________ EP151998 15.9500 -106.015 35 -1 5 308
1998283N13268 1998 83 EP MM MADELINE 1998-10-14 18:00:00 NR 16.1000 -106.200 main 377 371 O_____________ jtwc_ep EP151998 16.1000 -106.200 35 0 4 307
1998283N13268 1998 83 EP MM MADELINE 1998-10-14 21:00:00 NR 16.1925 -106.350 main 376 366 P_____________ EP151998 16.1925 -106.350 32 -1 4 305
1998283N13268 1998 83 EP MM MADELINE 1998-10-15 00:00:00 NR 16.3000 -106.500 main 371 362 O_____________ jtwc_ep EP151998 16.3000 -106.500 30 -1 5 311
1998283N13268 1998 83 EP MM MADELINE 1998-10-15 03:00:00 NR 16.4925 -106.707 main 362 357 P_____________ EP151998 16.4925 -106.707 30 -1 6 316
1998283N13268 1998 83 EP MM MADELINE 1998-10-15 06:00:00 NR 16.7000 -106.900 main 357 346 O_____________ jtwc_ep EP151998 16.7000 -106.900 30 -1 5 322
1998283N13268 1998 83 EP MM MADELINE 1998-10-15 09:00:00 NR 16.8650 -107.015 main 346 345 P_____________ EP151998 16.8650 -107.015 30 -1 4 328
1998283N13268 1998 83 EP MM MADELINE 1998-10-15 12:00:00 NR 17.0000 -107.100 main 345 345 O_____________ jtwc_ep EP151998 17.0000 -107.100 30 -1 3 322
1998283N13268 1998 83 EP MM MADELINE 1998-10-15 15:00:00 NR 17.0775 -107.193 main 345 345 P_____________ EP151998 17.0775 -107.193 27 -1 3 316
1998283N13268 1998 83 EP MM MADELINE 1998-10-15 18:00:00 NR 17.2000 -107.300 main 345 330 O_____________ jtwc_ep EP151998 17.2000 -107.300 25 -1 5 328
1998283N13268 1998 83 EP MM MADELINE 1998-10-15 21:00:00 NR 17.4700 -107.450 main 330 322 P_____________ EP151998 17.4700 -107.450 25 -1 7 335
1998283N13268 1998 83 EP MM MADELINE 1998-10-16 00:00:00 TS 17.8000 -107.600 25 1006 hurdat_epa main 322 309 O_____________ hurdat_epa EP151998 17.8000 -107.600 TD 25 1006 -1 7 339
1998283N13268 1998 83 EP MM MADELINE 1998-10-16 03:00:00 TS 18.1075 -107.703 main 309 300 P_____________ EP151998 18.1075 -107.708 TD 27 1005 -1 6 342
1998283N13268 1998 83 EP MM MADELINE 1998-10-16 06:00:00 TS 18.4000 -107.800 30 1004 hurdat_epa main 300 290 O_____________ hurdat_epa EP151998 18.4000 -107.800 TD 30 1004 -1 6 341
1998283N13268 1998 83 EP MM MADELINE 1998-10-16 09:00:00 TS 18.6650 -107.908 main 290 285 P_____________ EP151998 18.6650 -107.908 TD 35 1003 0 5 339
1998283N13268 1998 83 EP MM MADELINE 1998-10-16 12:00:00 TS 18.9000 -108.000 40 1003 hurdat_epa main 289 280 O_____________ hurdat_epa EP151998 18.9000 -108.000 TS 40 1003 0 5 342
1998283N13268 1998 83 EP MM MADELINE 1998-10-16 15:00:00 TS 19.1225 -108.058 main 290 279 P_____________ EP151998 19.1225 -108.058 TS 47 1001 0 4 347
1998283N13268 1998 83 EP MM MADELINE 1998-10-16 18:00:00 TS 19.3000 -108.100 55 1000 hurdat_epa main 279 274 O_____________ hurdat_epa EP151998 19.3000 -108.100 TS 55 1000 0 3 340
1998283N13268 1998 83 EP MM MADELINE 1998-10-16 21:00:00 TS 19.4225 -108.172 main 284 280 P_____________ EP151998 19.4225 -108.172 TS 55 998 0 2 333
1998283N13268 1998 83 EP MM MADELINE 1998-10-17 00:00:00 TS 19.5000 -108.200 55 997 hurdat_epa main 280 266 O_____________ hurdat_epa EP151998 19.5000 -108.200 TS 55 997 0 1 19
1998283N13268 1998 83 EP MM MADELINE 1998-10-17 03:00:00 TS 19.5575 -108.140 main 266 256 P_____________ EP151998 19.5575 -108.138 TS 57 995 0 2 62
1998283N13268 1998 83 EP MM MADELINE 1998-10-17 06:00:00 TS 19.6000 -108.000 60 994 hurdat_epa main 256 236 O_____________ hurdat_epa EP151998 19.6000 -108.000 TS 60 994 0 3 75
1998283N13268 1998 83 EP MM MADELINE 1998-10-17 09:00:00 TS 19.6425 -107.796 main 236 213 P_____________ EP151998 19.6425 -107.815 TS 60 993 0 4 76
1998283N13268 1998 83 EP MM MADELINE 1998-10-17 12:00:00 TS 19.7000 -107.567 60 992 hurdat_epa main 213 189 O_____________ hurdat_epa EP151998 19.7000 -107.600 TS 60 992 0 4 69
1998283N13268 1998 83 EP MM MADELINE 1998-10-17 15:00:00 TS 19.7925 -107.373 main 189 166 P_____________ EP151998 19.7925 -107.393 TS 62 991 0 4 60
1998283N13268 1998 83 EP MM MADELINE 1998-10-17 18:00:00 TS 19.9000 -107.200 65 990 hurdat_epa main 166 142 O_____________ hurdat_epa EP151998 19.9000 -107.200 HU 65 990 1 4 57
1998283N13268 1998 83 EP MM MADELINE 1998-10-17 21:00:00 TS 20.0000 -107.037 main 142 129 P_____________ EP151998 20.0000 -107.035 HU 67 989 1 3 55
1998283N13268 1998 83 EP MM MADELINE 1998-10-18 00:00:00 TS 20.1000 -106.900 70 988 hurdat_epa main 129 116 O_____________ hurdat_epa EP151998 20.1000 -106.900 HU 70 988 1 3 51
1998283N13268 1998 83 EP MM MADELINE 1998-10-18 03:00:00 TS 20.1925 -106.785 main 116 104 P_____________ EP151998 20.1925 -106.785 HU 70 987 1 3 44
1998283N13268 1998 83 EP MM MADELINE 1998-10-18 06:00:00 TS 20.3000 -106.700 70 986 hurdat_epa main 104 93 O_____________ hurdat_epa EP151998 20.3000 -106.700 HU 70 986 1 3 28
1998283N13268 1998 83 EP MM MADELINE 1998-10-18 09:00:00 TS 20.4425 -106.642 main 93 93 P_____________ EP151998 20.4425 -106.642 HU 72 985 1 3 17
1998283N13268 1998 83 EP MM MADELINE 1998-10-18 12:00:00 TS 20.6000 -106.600 75 985 hurdat_epa main 96 89 O_____________ hurdat_epa EP151998 20.6000 -106.600 HU 75 985 1 3 17
1998283N13268 1998 83 EP MM MADELINE 1998-10-18 15:00:00 TS 20.7500 -106.535 main 94 94 P_____________ EP151998 20.7500 -106.535 HU 75 984 1 3 17
1998283N13268 1998 83 EP MM MADELINE 1998-10-18 18:00:00 TS 20.9000 -106.500 75 983 hurdat_epa main 100 100 O_____________ hurdat_epa EP151998 20.9000 -106.500 HU 75 983 1 3 5
1998283N13268 1998 83 EP MM MADELINE 1998-10-18 21:00:00 TS 21.0425 -106.535 main 106 106 P_____________ EP151998 21.0425 -106.535 HU 75 981 1 3 343
1998283N13268 1998 83 EP MM MADELINE 1998-10-19 00:00:00 TS 21.2000 -106.600 75 979 hurdat_epa main 122 122 O_____________ hurdat_epa EP151998 21.2000 -106.600 HU 75 979 1 4 343
1998283N13268 1998 83 EP MM MADELINE 1998-10-19 03:00:00 TS 21.3775 -106.643 main 122 122 P_____________ EP151998 21.3775 -106.643 HU 72 979 1 4 347
1998283N13268 1998 83 EP MM MADELINE 1998-10-19 06:00:00 TS 21.6000 -106.700 70 980 hurdat_epa main 122 115 O_____________ hurdat_epa EP151998 21.6000 -106.700 HU 70 980 1 5 348
1998283N13268 1998 83 EP MM MADELINE 1998-10-19 09:00:00 TS 21.8774 -106.758 main 121 112 P_____________ EP151998 21.8699 -106.755 HU 62 983 0 6 343
1998283N13268 1998 83 EP MM MADELINE 1998-10-19 12:00:00 TS 22.2000 -106.900 55 987 hurdat_epa main 113 105 O_____________ hurdat_epa EP151998 22.2000 -106.900 TS 55 987 0 8 329
1998283N13268 1998 83 EP MM MADELINE 1998-10-19 15:00:00 TS 22.5350 -107.178 main 113 105 P_____________ EP151998 22.5925 -107.197 TS 45 990 0 9 319
1998283N13268 1998 83 EP MM MADELINE 1998-10-19 18:00:00 TS 22.9000 -107.567 35 994 hurdat_epa main 120 113 O_____________ hurdat_epa EP151998 23.0000 -107.600 TS 35 994 0 11 314
1998283N13268 1998 83 EP MM MADELINE 1998-10-19 21:00:00 TS 23.2928 -108.018 main 117 97 P_____________ EP151998 23.3652 -108.042 TS 30 999 -1 12 313
1998283N13268 1998 83 EP MM MADELINE 1998-10-20 00:00:00 TS 23.7000 -108.500 25 1004 hurdat_epa main 97 O_____________ hurdat_epa EP151998 23.7000 -108.500 TD 25 1004 -1 12 313

IBTrACS Databaseについて

本データベースは、米国NOAAが公開する1842年以降の世界の熱帯低気圧のベストトラックデータアーカイブInternational Best Track Archive for Climate Stewardship (IBTrACS)を、ウェブで閲覧しやすい形式に変換したものです。

最終更新日:2021-11-26